Time;durP1;ratioP1;P1;durP2;ratioP2;P2;SDS_P1;SDS_P2;PMS_P1;PMS_P2;Temp;Humidity;BMP_temperature;BMP_pressure;BME280_temperature;BME280_humidity;BME280_pressure;Samples;Min_cycle;Max_cycle;Signal;HPM_P1;HPM_P2
2023/07/11 00:02:25;;;;;;;10.60;3.55;;;16.50;99.90;;;;;;5102538;28;20525;-63
2023/07/11 00:04:51;;;;;;;12.30;3.63;;;16.40;99.90;;;;;;5085853;28;20139;-63
2023/07/11 00:07:16;;;;;;;8.73;3.22;;;16.40;99.90;;;;;;5108877;28;20031;-63
2023/07/11 00:09:49;;;;;;;9.38;3.35;;;16.40;99.90;;;;;;5105512;28;20042;-63
2023/07/11 00:12:16;;;;;;;8.38;2.92;;;16.50;99.90;;;;;;5103542;28;20064;-63
2023/07/11 00:14:41;;;;;;;8.98;3.17;;;16.50;99.90;;;;;;5124640;28;20059;-63
2023/07/11 00:17:07;;;;;;;6.13;2.78;;;16.50;99.90;;;;;;5087795;28;20112;-63
2023/07/11 00:19:48;;;;;;;6.53;3.30;;;16.50;99.90;;;;;;5105591;28;20122;-64
2023/07/11 00:22:14;;;;;;;7.45;3.50;;;16.60;99.90;;;;;;5088146;28;20618;-63
2023/07/11 00:24:39;;;;;;;10.75;3.78;;;16.60;99.90;;;;;;5105488;27;20031;-64
2023/07/11 00:27:05;;;;;;;8.65;3.70;;;16.60;99.90;;;;;;5125906;27;20555;-64
2023/07/11 00:29:30;;;;;;;11.23;3.97;;;16.50;99.90;;;;;;5128206;27;20073;-63
2023/07/11 00:31:56;;;;;;;12.52;4.30;;;16.50;99.90;;;;;;5108161;27;20039;-64
2023/07/11 00:34:21;;;;;;;9.43;3.75;;;16.50;99.90;;;;;;5109169;27;20050;-63
2023/07/11 00:36:47;;;;;;;8.73;3.60;;;16.50;99.90;;;;;;5090485;27;20046;-64
2023/07/11 00:39:15;;;;;;;10.45;3.85;;;16.50;99.90;;;;;;5108842;27;20526;-63
2023/07/11 00:41:42;;;;;;;9.05;3.65;;;16.50;99.90;;;;;;5124610;27;20039;-63
2023/07/11 00:44:13;;;;;;;11.02;3.80;;;16.50;99.90;;;;;;5092591;27;20050;-63
2023/07/11 00:46:40;;;;;;;12.55;4.22;;;16.50;99.90;;;;;;5126746;27;20031;-63
2023/07/11 00:49:08;;;;;;;8.00;3.53;;;16.50;99.90;;;;;;5108581;27;20035;-64
2023/07/11 00:51:39;;;;;;;9.07;3.53;;;16.50;99.90;;;;;;5127163;27;20635;-63
2023/07/11 00:54:10;;;;;;;8.82;3.70;;;16.50;99.90;;;;;;5126447;27;20075;-63
2023/07/11 00:56:40;;;;;;;10.45;3.42;;;16.50;99.90;;;;;;5121092;27;20067;-63
2023/07/11 00:59:08;;;;;;;14.23;3.60;;;16.50;99.90;;;;;;5108113;27;20047;-63
2023/07/11 01:01:34;;;;;;;8.77;3.38;;;16.50;99.90;;;;;;5107631;27;20415;-62
2023/07/11 01:04:00;;;;;;;12.27;3.40;;;16.60;99.90;;;;;;5108416;27;20050;-63
2023/07/11 01:06:28;;;;;;;11.90;3.83;;;16.50;99.90;;;;;;5127146;27;20401;-62
2023/07/11 01:08:55;;;;;;;9.32;3.47;;;16.50;99.90;;;;;;5107298;27;20039;-62
2023/07/11 01:11:24;;;;;;;8.68;3.80;;;16.50;99.90;;;;;;5106087;27;20027;-63
2023/07/11 01:13:50;;;;;;;10.68;3.75;;;16.50;99.90;;;;;;5108129;27;20537;-62
2023/07/11 01:16:15;;;;;;;7.82;3.95;;;16.50;99.90;;;;;;5107872;27;20042;-62
2023/07/11 01:18:42;;;;;;;8.80;3.65;;;16.50;99.90;;;;;;5108120;27;20039;-62
2023/07/11 01:21:08;;;;;;;14.15;3.70;;;16.40;99.90;;;;;;5127017;27;20421;-63
2023/07/11 01:23:35;;;;;;;11.75;3.65;;;16.40;99.90;;;;;;5125565;27;20043;-63
2023/07/11 01:26:06;;;;;;;9.75;4.47;;;16.40;99.90;;;;;;5125826;27;20043;-63
2023/07/11 01:28:32;;;;;;;12.88;4.53;;;16.30;99.90;;;;;;5126517;27;20050;-62
2023/07/11 01:30:58;;;;;;;9.45;4.22;;;16.30;99.90;;;;;;5107110;27;20035;-63
2023/07/11 01:33:25;;;;;;;9.73;3.78;;;16.30;99.90;;;;;;5107755;27;20489;-62
2023/07/11 01:35:54;;;;;;;12.07;4.45;;;16.20;99.90;;;;;;5108245;27;20342;-62
2023/07/11 01:38:22;;;;;;;12.50;3.97;;;16.20;99.90;;;;;;5125381;27;20049;-63
2023/07/11 01:40:49;;;;;;;10.75;3.95;;;16.20;99.90;;;;;;5125182;27;20402;-63
2023/07/11 01:43:17;;;;;;;11.93;4.68;;;16.20;99.90;;;;;;5126016;27;20043;-62
2023/07/11 01:45:43;;;;;;;8.07;3.70;;;16.20;99.90;;;;;;5105875;27;20050;-62
2023/07/11 01:48:09;;;;;;;10.88;4.60;;;16.20;99.90;;;;;;5107474;27;20201;-62
2023/07/11 01:50:34;;;;;;;9.23;4.22;;;16.20;99.90;;;;;;5107677;27;20095;-62
2023/07/11 01:53:00;;;;;;;9.27;3.92;;;16.20;99.90;;;;;;5125179;27;20185;-62
2023/07/11 01:55:25;;;;;;;9.68;4.40;;;16.20;99.90;;;;;;5107173;27;20582;-63
2023/07/11 01:57:51;;;;;;;9.77;3.75;;;16.20;99.90;;;;;;5124413;27;20055;-63
2023/07/11 02:00:17;;;;;;;12.18;3.83;;;16.20;99.90;;;;;;5106736;27;20047;-63
2023/07/11 02:02:43;;;;;;;12.30;3.95;;;16.20;99.90;;;;;;5125987;27;20055;-63
2023/07/11 02:05:08;;;;;;;9.45;3.83;;;16.20;99.90;;;;;;5125637;27;20055;-62
2023/07/11 02:07:34;;;;;;;13.20;3.72;;;16.20;99.90;;;;;;5107196;27;20039;-64
2023/07/11 02:09:59;;;;;;;10.88;3.97;;;16.20;99.90;;;;;;5125561;27;20039;-63
2023/07/11 02:12:25;;;;;;;9.65;3.88;;;16.20;99.90;;;;;;5106171;27;20797;-63
2023/07/11 02:14:51;;;;;;;11.63;4.00;;;16.20;99.90;;;;;;5107338;27;20058;-64
2023/07/11 02:17:17;;;;;;;10.95;3.70;;;16.20;99.90;;;;;;5124608;27;20448;-63
2023/07/11 02:19:46;;;;;;;10.07;4.38;;;16.20;99.90;;;;;;5125494;27;20058;-63
2023/07/11 02:22:12;;;;;;;11.18;4.30;;;16.10;99.90;;;;;;5106513;27;20454;-63
2023/07/11 02:24:41;;;;;;;12.77;3.80;;;16.10;99.90;;;;;;5107278;27;20039;-63
2023/07/11 02:27:08;;;;;;;10.32;4.00;;;16.10;99.90;;;;;;5106204;27;20035;-65
2023/07/11 02:29:33;;;;;;;12.27;3.53;;;16.10;99.90;;;;;;5124727;27;20523;-64
2023/07/11 02:31:59;;;;;;;12.43;3.83;;;16.10;99.90;;;;;;5106290;27;20185;-65
2023/07/11 02:34:25;;;;;;;14.60;4.03;;;16.10;99.90;;;;;;5106619;27;20123;-64
2023/07/11 02:36:51;;;;;;;11.30;3.75;;;16.10;99.90;;;;;;5123736;27;20079;-63
2023/07/11 02:39:16;;;;;;;10.35;3.45;;;16.10;99.90;;;;;;5107537;27;20043;-64
2023/07/11 02:41:42;;;;;;;8.77;3.45;;;16.10;99.90;;;;;;5105120;27;20039;-63
2023/07/11 02:44:09;;;;;;;8.40;3.33;;;16.10;99.90;;;;;;5125505;27;20499;-63
2023/07/11 02:46:34;;;;;;;10.82;3.20;;;16.00;99.90;;;;;;5124999;27;20042;-64
2023/07/11 02:49:00;;;;;;;8.60;3.35;;;16.10;99.90;;;;;;5105929;27;20043;-63
2023/07/11 02:51:26;;;;;;;10.52;3.92;;;16.10;99.90;;;;;;5106841;27;20031;-63
2023/07/11 02:53:52;;;;;;;11.75;3.35;;;16.00;99.90;;;;;;5105215;27;20058;-64
2023/07/11 02:56:19;;;;;;;11.10;3.58;;;16.00;99.90;;;;;;5105618;27;20039;-64
2023/07/11 02:58:46;;;;;;;10.18;3.63;;;16.00;99.90;;;;;;5106120;27;20058;-64
2023/07/11 03:01:12;;;;;;;9.10;3.40;;;16.00;99.90;;;;;;5084554;28;20109;-64
2023/07/11 03:03:38;;;;;;;11.13;3.90;;;16.10;99.90;;;;;;5103083;28;20048;-64
2023/07/11 03:06:04;;;;;;;9.98;4.22;;;16.10;99.90;;;;;;5104868;28;20081;-64
2023/07/11 03:08:33;;;;;;;9.57;3.88;;;16.10;99.90;;;;;;5101874;28;20043;-63
2023/07/11 03:11:00;;;;;;;13.68;4.20;;;16.20;99.90;;;;;;5102095;28;20051;-64
2023/07/11 03:13:26;;;;;;;7.90;4.07;;;16.20;99.90;;;;;;5104257;28;20518;-63
2023/07/11 03:15:52;;;;;;;12.57;3.95;;;16.20;99.90;;;;;;5085091;28;20126;-64
2023/07/11 03:18:18;;;;;;;10.10;4.00;;;16.20;99.90;;;;;;5102983;28;20035;-64
2023/07/11 03:20:44;;;;;;;11.50;4.00;;;16.20;99.90;;;;;;5104329;28;20061;-63
2023/07/11 03:23:13;;;;;;;7.03;3.40;;;16.20;99.90;;;;;;5084879;28;20128;-63
2023/07/11 03:25:40;;;;;;;7.38;3.22;;;16.20;99.90;;;;;;5085421;28;20043;-63
2023/07/11 03:28:06;;;;;;;11.38;4.05;;;16.20;99.90;;;;;;5101777;28;20039;-64
2023/07/11 03:30:34;;;;;;;9.57;3.95;;;16.20;99.90;;;;;;5101818;28;20036;-64
2023/07/11 03:33:03;;;;;;;8.85;3.85;;;16.20;99.90;;;;;;5102777;28;20096;-64
2023/07/11 03:35:28;;;;;;;8.40;3.63;;;16.10;99.90;;;;;;5103606;28;20035;-63
2023/07/11 03:37:54;;;;;;;10.98;3.70;;;16.20;99.90;;;;;;5092062;28;20337;-64
2023/07/11 03:40:20;;;;;;;10.60;3.80;;;16.10;99.90;;;;;;5082039;28;20048;-64
2023/07/11 03:42:46;;;;;;;11.38;4.22;;;16.10;99.90;;;;;;5065060;28;20607;-63
2023/07/11 03:45:11;;;;;;;13.20;3.90;;;16.10;99.90;;;;;;5082882;28;20036;-63
2023/07/11 03:47:37;;;;;;;9.32;3.70;;;16.10;99.90;;;;;;5101843;28;20046;-63
2023/07/11 03:50:03;;;;;;;14.65;4.18;;;16.10;99.90;;;;;;5102228;28;20043;-64
2023/07/11 03:52:29;;;;;;;9.45;3.50;;;16.10;99.90;;;;;;5102076;28;20420;-63
2023/07/11 03:54:54;;;;;;;14.38;4.13;;;16.10;99.90;;;;;;5102753;28;20035;-64
2023/07/11 03:57:20;;;;;;;11.85;4.00;;;16.10;99.90;;;;;;5101527;28;20051;-63
2023/07/11 03:59:46;;;;;;;9.80;3.95;;;16.10;99.90;;;;;;5104020;28;20385;-63
2023/07/11 04:02:11;;;;;;;9.48;4.22;;;16.10;99.90;;;;;;5087930;28;20047;-63
2023/07/11 04:04:37;;;;;;;12.35;4.10;;;16.10;99.90;;;;;;5085892;28;20103;-64
2023/07/11 04:07:04;;;;;;;9.93;4.00;;;16.20;99.90;;;;;;5088211;28;20044;-63
2023/07/11 04:09:30;;;;;;;10.73;3.88;;;16.20;99.90;;;;;;5106373;28;20645;-64
2023/07/11 04:11:55;;;;;;;7.82;3.95;;;16.20;99.90;;;;;;5104909;28;20051;-64
2023/07/11 04:14:21;;;;;;;14.13;4.13;;;16.20;99.90;;;;;;5108188;28;20035;-64
2023/07/11 04:16:47;;;;;;;10.88;3.90;;;16.20;99.90;;;;;;5105381;28;20038;-65
2023/07/11 04:19:13;;;;;;;11.73;4.45;;;16.20;99.90;;;;;;5106153;28;20043;-65
2023/07/11 04:21:38;;;;;;;7.85;3.70;;;16.20;99.90;;;;;;5089299;28;20073;-64
2023/07/11 04:24:04;;;;;;;10.43;3.97;;;16.20;99.90;;;;;;5104822;28;20142;-64
2023/07/11 04:26:30;;;;;;;12.95;4.30;;;16.30;99.90;;;;;;5105542;28;20039;-64
2023/07/11 04:28:55;;;;;;;9.10;3.95;;;16.30;99.90;;;;;;5106334;28;20040;-64
2023/07/11 04:31:21;;;;;;;12.27;3.78;;;16.30;99.90;;;;;;5104866;28;20044;-64
2023/07/11 04:33:46;;;;;;;11.60;3.67;;;16.40;99.90;;;;;;5105790;28;20047;-64
2023/07/11 04:36:14;;;;;;;9.63;3.88;;;16.40;99.90;;;;;;5106478;28;20118;-63
2023/07/11 04:38:40;;;;;;;7.13;3.47;;;16.40;99.90;;;;;;5104693;28;20032;-64
2023/07/11 04:41:06;;;;;;;9.38;3.75;;;16.40;99.90;;;;;;5105139;28;20035;-64
2023/07/11 04:43:35;;;;;;;10.38;4.20;;;16.40;99.90;;;;;;5087850;28;20093;-64
2023/07/11 04:46:03;;;;;;;13.02;4.45;;;16.40;99.90;;;;;;5105541;28;20031;-64
2023/07/11 04:48:29;;;;;;;10.50;4.03;;;16.40;99.90;;;;;;5105322;28;20067;-64
2023/07/11 04:50:56;;;;;;;10.57;4.57;;;16.50;99.90;;;;;;5088560;28;20052;-63
2023/07/11 04:53:22;;;;;;;13.55;4.35;;;16.50;99.90;;;;;;5104497;28;20044;-64
2023/07/11 04:55:55;;;;;;;16.95;4.80;;;16.60;99.90;;;;;;5104731;28;20132;-63
2023/07/11 04:58:21;;;;;;;10.52;4.20;;;16.60;99.90;;;;;;5104668;28;20039;-63
2023/07/11 05:00:46;;;;;;;12.68;4.38;;;16.70;99.90;;;;;;5107735;27;20057;-64
2023/07/11 05:03:12;;;;;;;12.55;4.40;;;16.80;99.90;;;;;;5091652;27;20065;-65
2023/07/11 05:05:37;;;;;;;9.35;3.95;;;17.40;99.90;;;;;;5109220;27;20050;-64
2023/07/11 05:08:04;;;;;;;9.57;4.20;;;18.00;99.90;;;;;;5100154;28;20037;-63
2023/07/11 05:10:29;;;;;;;7.78;3.58;;;18.40;99.90;;;;;;5070233;28;20055;-64
2023/07/11 05:12:55;;;;;;;9.82;3.97;;;18.70;99.90;;;;;;5087542;28;20148;-64
2023/07/11 05:15:23;;;;;;;11.80;3.78;;;19.50;99.90;;;;;;5072402;27;20035;-63
2023/07/11 05:17:49;;;;;;;11.57;3.90;;;20.20;99.90;;;;;;5102363;27;20043;-64
2023/07/11 05:20:14;;;;;;;11.63;3.80;;;20.50;99.90;;;;;;5096859;27;20027;-63
2023/07/11 05:22:40;;;;;;;8.50;3.42;;;21.10;99.90;;;;;;5118401;27;20076;-64
2023/07/11 05:25:06;;;;;;;14.07;4.60;;;21.50;99.90;;;;;;5126172;27;20497;-65
2023/07/11 05:27:32;;;;;;;11.57;3.67;;;21.30;99.90;;;;;;5090741;27;20054;-63
2023/07/11 05:29:58;;;;;;;9.63;3.70;;;21.20;99.90;;;;;;5125798;27;20038;-64
2023/07/11 05:32:23;;;;;;;11.45;3.47;;;21.10;99.90;;;;;;5107557;27;20039;-64
2023/07/11 05:34:49;;;;;;;11.02;3.72;;;21.10;99.90;;;;;;5120559;27;20112;-64
2023/07/11 05:37:14;;;;;;;8.05;3.47;;;21.20;99.90;;;;;;5096031;27;20038;-64
2023/07/11 05:39:40;;;;;;;10.13;3.67;;;21.20;99.90;;;;;;5097607;28;20607;-63
2023/07/11 05:42:06;;;;;;;9.55;4.63;;;21.10;99.90;;;;;;5084432;27;20114;-64
2023/07/11 05:44:31;;;;;;;9.70;4.00;;;21.10;99.90;;;;;;5115020;27;20035;-64
2023/07/11 05:46:57;;;;;;;12.93;4.53;;;21.10;99.90;;;;;;5099260;27;20086;-64
2023/07/11 05:49:23;;;;;;;11.48;4.32;;;21.10;99.90;;;;;;5075057;27;20035;-64
2023/07/11 05:51:49;;;;;;;12.63;4.32;;;21.10;99.90;;;;;;5103081;27;20584;-64
2023/07/11 05:54:15;;;;;;;10.23;4.47;;;21.00;99.90;;;;;;5090590;27;20039;-64
2023/07/11 05:56:41;;;;;;;11.57;4.47;;;21.00;99.90;;;;;;5093923;27;20497;-63
2023/07/11 05:59:07;;;;;;;9.68;4.20;;;20.90;99.90;;;;;;5124824;27;20039;-65
2023/07/11 06:01:33;;;;;;;7.78;4.45;;;21.00;99.90;;;;;;5094128;28;20112;-63
2023/07/11 06:04:13;;;;;;;11.48;4.70;;;21.20;99.90;;;;;;5100711;28;20044;-64
2023/07/11 06:06:43;;;;;;;10.45;4.25;;;21.50;99.90;;;;;;5094115;28;20517;-63
2023/07/11 06:09:16;;;;;;;9.93;4.43;;;21.60;99.90;;;;;;5093560;28;20127;-65
2023/07/11 06:11:43;;;;;;;8.55;3.90;;;21.80;99.90;;;;;;5090426;28;20123;-63
2023/07/11 06:14:09;;;;;;;12.52;3.80;;;21.80;99.90;;;;;;5095427;28;20359;-63
2023/07/11 06:16:35;;;;;;;8.43;3.70;;;21.90;99.90;;;;;;5093304;28;20092;-63
2023/07/11 06:19:01;;;;;;;11.40;3.38;;;21.90;99.90;;;;;;5079904;28;20449;-63
2023/07/11 06:21:27;;;;;;;11.20;3.80;;;22.00;99.90;;;;;;5094318;28;20135;-61
2023/07/11 06:23:52;;;;;;;11.00;3.58;;;22.20;99.90;;;;;;5092166;28;20047;-64
2023/07/11 06:26:18;;;;;;;8.00;3.28;;;22.20;99.90;;;;;;5094643;28;20032;-62
2023/07/11 06:28:44;;;;;;;9.20;3.30;;;22.40;99.90;;;;;;5103433;28;20508;-63
2023/07/11 06:31:11;;;;;;;9.68;3.40;;;22.50;99.90;;;;;;5093056;28;20129;-64
2023/07/11 06:33:37;;;;;;;9.40;3.85;;;22.60;99.90;;;;;;5080311;28;20539;-64
2023/07/11 06:36:04;;;;;;;9.75;3.90;;;22.60;99.90;;;;;;5083562;28;20352;-63
2023/07/11 06:38:30;;;;;;;10.70;3.45;;;22.60;99.90;;;;;;5063797;28;20062;-64
2023/07/11 06:40:57;;;;;;;9.27;3.70;;;22.50;99.90;;;;;;5083537;28;20043;-63
2023/07/11 06:43:25;;;;;;;8.55;3.22;;;22.30;99.90;;;;;;5084285;28;20151;-64
2023/07/11 06:45:55;;;;;;;12.05;4.00;;;22.30;99.90;;;;;;5083793;28;20040;-63
2023/07/11 06:48:23;;;;;;;8.73;3.47;;;22.20;99.90;;;;;;5083355;28;20035;-65
2023/07/11 06:50:58;;;;;;;10.82;3.08;;;22.20;99.90;;;;;;5082218;28;20043;-65
2023/07/11 06:53:27;;;;;;;9.88;3.20;;;22.10;99.90;;;;;;5081250;28;20326;-64
2023/07/11 06:55:53;;;;;;;10.02;3.60;;;22.10;99.90;;;;;;5080351;28;20052;-64
2023/07/11 06:58:20;;;;;;;9.35;3.22;;;22.10;99.90;;;;;;5083600;28;20054;-64
2023/07/11 07:01:10;;;;;;;12.05;3.20;;;22.20;99.90;;;;;;5086537;27;20063;-66
2023/07/11 07:03:35;;;;;;;8.05;3.40;;;22.20;99.90;;;;;;5105814;27;20051;-64
2023/07/11 07:06:08;;;;;;;12.82;3.42;;;22.20;99.90;;;;;;5104976;28;20039;-65
2023/07/11 07:08:34;;;;;;;8.80;3.15;;;22.30;99.90;;;;;;5080078;28;20047;-65
2023/07/11 07:11:00;;;;;;;10.68;3.85;;;22.40;99.90;;;;;;5097168;28;20064;-65
2023/07/11 07:13:25;;;;;;;12.27;3.67;;;22.50;99.90;;;;;;5096577;28;20054;-63
2023/07/11 07:15:57;;;;;;;8.05;3.40;;;22.50;99.90;;;;;;5096061;28;20034;-64
2023/07/11 07:18:23;;;;;;;10.93;3.53;;;22.60;99.90;;;;;;5113725;28;20043;-65
2023/07/11 07:20:51;;;;;;;7.53;3.25;;;22.70;99.90;;;;;;5096041;28;20051;-65
2023/07/11 07:23:17;;;;;;;9.43;3.55;;;22.70;99.90;;;;;;5101034;28;20147;-65
2023/07/11 07:25:52;;;;;;;11.02;3.90;;;22.70;99.90;;;;;;5110960;28;20500;-66
2023/07/11 07:28:18;;;;;;;9.73;3.10;;;22.80;99.90;;;;;;5103091;28;20039;-64
2023/07/11 07:30:49;;;;;;;8.57;3.22;;;22.80;99.90;;;;;;5101526;28;20393;-65
2023/07/11 07:33:15;;;;;;;8.88;2.88;;;22.80;99.90;;;;;;5124277;28;20043;-66
2023/07/11 07:35:42;;;;;;;8.50;2.85;;;22.90;99.90;;;;;;5108976;27;20053;-65
2023/07/11 07:38:08;;;;;;;9.20;2.85;;;22.90;99.90;;;;;;5108432;27;20126;-65
2023/07/11 07:40:34;;;;;;;6.15;3.13;;;22.90;99.90;;;;;;5109775;27;20623;-66
2023/07/11 07:42:59;;;;;;;8.55;3.05;;;23.00;99.90;;;;;;5110207;27;20047;-65
2023/07/11 07:45:25;;;;;;;10.13;3.17;;;23.00;99.90;;;;;;5128142;27;20043;-64
2023/07/11 07:47:50;;;;;;;8.20;3.25;;;23.10;99.90;;;;;;5127453;27;20035;-65
2023/07/11 07:50:16;;;;;;;10.80;3.22;;;23.10;99.90;;;;;;5110042;27;20039;-65
2023/07/11 07:52:42;;;;;;;8.57;3.17;;;23.10;99.90;;;;;;5109436;27;20039;-65
2023/07/11 07:55:08;;;;;;;9.32;3.20;;;23.10;99.90;;;;;;5092597;27;20046;-65
2023/07/11 07:57:34;;;;;;;10.90;3.03;;;23.00;99.90;;;;;;5092390;27;20046;-64
2023/07/11 08:00:02;;;;;;;9.27;3.25;;;23.10;99.90;;;;;;5109130;27;20623;-65
2023/07/11 08:02:31;;;;;;;8.05;3.03;;;23.00;99.90;;;;;;5109406;27;20127;-65
2023/07/11 08:04:57;;;;;;;8.48;3.35;;;23.00;99.90;;;;;;5110287;27;20069;-65
2023/07/11 08:07:24;;;;;;;9.07;3.13;;;23.10;99.90;;;;;;5127886;27;20039;-66
2023/07/11 08:09:55;;;;;;;7.30;2.83;;;23.20;99.90;;;;;;5093241;27;20622;-65
2023/07/11 08:12:21;;;;;;;9.25;3.22;;;23.30;99.90;;;;;;5109324;27;20511;-65
2023/07/11 08:14:46;;;;;;;10.73;3.00;;;23.40;99.90;;;;;;5110385;27;20089;-64
2023/07/11 08:17:12;;;;;;;12.05;2.95;;;23.50;99.90;;;;;;5108833;27;20077;-66
2023/07/11 08:19:38;;;;;;;9.80;3.20;;;23.60;99.90;;;;;;5109491;27;20121;-65
2023/07/11 08:22:05;;;;;;;7.43;2.92;;;23.70;99.90;;;;;;5127071;27;20050;-65
2023/07/11 08:24:30;;;;;;;8.40;3.00;;;23.70;99.90;;;;;;5128244;27;20055;-64
2023/07/11 08:26:59;;;;;;;9.65;3.53;;;23.80;99.90;;;;;;5108432;27;20143;-64
2023/07/11 08:29:25;;;;;;;8.90;3.10;;;23.90;99.90;;;;;;5128142;27;20465;-65
2023/07/11 08:31:51;;;;;;;15.05;2.67;;;24.00;99.90;;;;;;5127092;27;20046;-64
2023/07/11 08:34:16;;;;;;;8.93;2.80;;;24.00;99.90;;;;;;5108960;27;20053;-65
2023/07/11 08:36:44;;;;;;;8.95;2.90;;;24.10;99.90;;;;;;5109342;27;20156;-65
2023/07/11 08:39:10;;;;;;;6.28;2.90;;;24.10;99.90;;;;;;5107902;27;20542;-65
2023/07/11 08:41:48;;;;;;;9.02;2.60;;;24.10;99.90;;;;;;5107300;27;20040;-65
2023/07/11 08:44:24;;;;;;;7.45;2.30;;;24.30;99.90;;;;;;5127919;27;20035;-64
2023/07/11 08:47:00;;;;;;;6.68;2.70;;;24.40;99.90;;;;;;5126191;27;20122;-64
2023/07/11 08:49:33;;;;;;;7.68;2.88;;;24.50;99.90;;;;;;5127332;27;20047;-65
2023/07/11 08:52:01;;;;;;;7.93;2.90;;;24.50;99.90;;;;;;5126436;27;20031;-68
2023/07/11 08:54:48;;;;;;;7.10;2.20;;;24.60;99.90;;;;;;5108931;27;20051;-65
2023/07/11 08:57:18;;;;;;;8.65;2.83;;;24.60;99.50;;;;;;5107815;27;20043;-65
2023/07/11 09:00:14;;;;;;;10.75;3.10;;;24.60;99.70;;;;;;5107814;27;20530;-66
2023/07/11 09:02:56;;;;;;;7.25;2.63;;;24.70;99.10;;;;;;5091199;27;20054;-66
2023/07/11 09:06:02;;;;;;;12.07;2.58;;;24.80;99.80;;;;;;5109141;27;20119;-62
2023/07/11 09:08:29;;;;;;;12.82;3.00;;;24.90;99.70;;;;;;5086368;28;20047;-64
2023/07/11 09:11:04;;;;;;;9.88;3.38;;;24.90;99.20;;;;;;5087625;28;20426;-64
2023/07/11 09:13:44;;;;;;;9.25;2.60;;;25.00;99.10;;;;;;5071208;28;20043;-66
2023/07/11 09:16:32;;;;;;;9.15;2.70;;;25.10;99.20;;;;;;5085794;28;20657;-65
2023/07/11 09:19:25;;;;;;;9.55;3.10;;;25.20;98.50;;;;;;5106501;28;20031;-66
2023/07/11 09:22:03;;;;;;;9.65;3.00;;;25.30;99.10;;;;;;5105421;28;20039;-67
2023/07/11 09:24:51;;;;;;;7.22;2.67;;;25.40;99.10;;;;;;5088229;28;20088;-66
2023/07/11 09:27:23;;;;;;;6.28;2.50;;;25.50;98.70;;;;;;5092153;27;20043;-65
2023/07/11 09:29:50;;;;;;;9.85;2.75;;;25.60;98.30;;;;;;5108559;27;20506;-64
2023/07/11 09:32:16;;;;;;;9.10;2.58;;;25.70;97.90;;;;;;5107138;27;20150;-69
2023/07/11 09:34:44;;;;;;;9.00;2.65;;;25.80;97.70;;;;;;5125267;27;20054;-66
2023/07/11 09:37:30;;;;;;;9.00;2.38;;;25.90;97.40;;;;;;5106835;27;20849;-66
2023/07/11 09:40:11;;;;;;;6.55;2.10;;;26.00;96.60;;;;;;5073398;27;20560;-64
2023/07/11 09:42:48;;;;;;;8.27;2.53;;;26.00;95.80;;;;;;5089971;27;20149;-68
2023/07/11 09:45:22;;;;;;;10.70;2.58;;;26.10;96.10;;;;;;5108632;27;20038;-65
2023/07/11 09:47:51;;;;;;;;;;;26.10;95.30;;;;;;5108165;27;20043;-65
2023/07/11 09:50:43;;;;;;;9.63;2.05;;;26.20;95.40;;;;;;5126498;27;19926;-66
2023/07/11 09:53:15;;;;;;;7.53;2.13;;;26.20;95.30;;;;;;5107737;27;20081;-64
2023/07/11 09:55:42;;;;;;;9.50;2.30;;;26.20;94.80;;;;;;5107080;27;20486;-67
2023/07/11 09:58:14;;;;;;;11.73;2.58;;;26.30;95.40;;;;;;5125870;27;20076;-65
2023/07/11 10:00:48;;;;;;;6.88;2.22;;;26.20;93.90;;;;;;5106198;27;20043;-64
2023/07/11 10:03:17;;;;;;;;;;;26.20;93.70;;;;;;5108013;27;20047;-63
2023/07/11 10:05:48;;;;;;;11.20;2.28;;;26.10;93.50;;;;;;5126645;27;19934;-69
2023/07/11 10:08:18;;;;;;;7.78;2.42;;;26.10;93.60;;;;;;5124104;27;20731;-65
2023/07/11 10:10:50;;;;;;;5.60;1.90;;;26.00;93.10;;;;;;5106482;27;20167;-67
2023/07/11 10:13:16;;;;;;;6.88;1.88;;;26.00;92.30;;;;;;5126142;27;20104;-67
2023/07/11 10:15:43;;;;;;;9.93;2.40;;;26.00;92.50;;;;;;5107006;27;20046;-71
2023/07/11 10:18:24;;;;;;;10.13;2.22;;;25.90;92.50;;;;;;5125735;27;20577;-64
2023/07/11 10:20:55;;;;;;;10.13;2.30;;;25.90;92.10;;;;;;5107572;27;20562;-65
2023/07/11 10:23:24;;;;;;;7.07;2.20;;;25.90;92.70;;;;;;5089111;27;20099;-66
2023/07/11 10:26:02;;;;;;;6.63;2.15;;;26.00;92.90;;;;;;5124839;27;20043;-69
2023/07/11 10:28:32;;;;;;;7.32;2.50;;;26.10;92.60;;;;;;5107056;27;20084;-67
2023/07/11 10:31:07;;;;;;;8.13;2.10;;;26.20;93.00;;;;;;5106444;27;20042;-67
2023/07/11 10:33:39;;;;;;;8.32;2.25;;;26.40;93.60;;;;;;5126432;27;20574;-65
2023/07/11 10:36:19;;;;;;;6.63;2.00;;;26.60;92.90;;;;;;5126361;27;20409;-67
2023/07/11 10:38:59;;;;;;;7.38;2.38;;;26.70;91.30;;;;;;5086050;28;20047;-68
2023/07/11 10:41:30;;;;;;;7.68;2.13;;;26.70;91.40;;;;;;5086413;28;20083;-70
2023/07/11 10:43:58;;;;;;;11.52;2.80;;;26.70;90.90;;;;;;5086897;28;20043;-64
2023/07/11 10:46:31;;;;;;;8.65;2.30;;;26.50;91.20;;;;;;5113478;27;20118;-66
2023/07/11 10:49:02;;;;;;;9.20;2.25;;;26.40;91.80;;;;;;5106365;27;20034;-67
2023/07/11 10:52:01;;;;;;;8.63;2.63;;;26.30;91.80;;;;;;5107104;27;20039;-66
2023/07/11 10:54:42;;;;;;;8.63;2.35;;;26.30;92.30;;;;;;5076749;28;20122;-64
2023/07/11 10:57:29;;;;;;;7.25;2.15;;;26.40;92.80;;;;;;5097032;27;20050;-66
2023/07/11 10:59:55;;;;;;;9.18;2.33;;;26.50;92.20;;;;;;5106546;27;20096;-66
2023/07/11 11:02:44;;;;;;;10.40;2.40;;;26.60;92.40;;;;;;5105854;27;20631;-68
2023/07/11 11:05:45;;;;;;;9.93;2.80;;;26.70;92.60;;;;;;5125253;27;20051;-65
2023/07/11 11:08:34;;;;;;;7.43;2.08;;;26.90;92.90;;;;;;5117762;27;20074;-66
2023/07/11 11:11:15;;;;;;;6.90;2.65;;;27.00;92.70;;;;;;5105309;27;20050;-65
2023/07/11 11:14:01;;;;;;;12.25;2.08;;;27.00;93.00;;;;;;5106496;27;20047;-63
2023/07/11 11:16:32;;;;;;;8.55;2.35;;;27.10;93.20;;;;;;5124470;27;20074;-69
2023/07/11 11:19:20;;;;;;;14.20;2.28;;;27.20;93.10;;;;;;5124506;28;20351;-66
2023/07/11 11:22:13;;;;;;;6.55;2.20;;;27.20;93.40;;;;;;5123822;28;20505;-67
2023/07/11 11:25:00;;;;;;;7.97;1.95;;;27.20;92.80;;;;;;5086005;28;20092;-66
2023/07/11 11:27:37;;;;;;;8.00;2.22;;;27.20;92.60;;;;;;5086415;28;20054;-71
2023/07/11 11:30:38;;;;;;;7.57;2.00;;;27.20;91.90;;;;;;5106529;28;20146;-66
2023/07/11 11:33:29;;;;;;;8.50;1.90;;;27.20;90.40;;;;;;5086354;28;20794;-67
2023/07/11 11:36:28;;;;;;;6.38;1.77;;;27.10;90.60;;;;;;5111312;28;20078;-69
2023/07/11 11:39:23;;;;;;;8.85;2.08;;;27.30;87.70;;;;;;5123357;28;20066;-70
2023/07/11 11:42:04;;;;;;;7.07;2.42;;;27.30;88.40;;;;;;5123929;28;20562;-65
2023/07/11 11:44:45;;;;;;;10.63;2.10;;;27.30;86.70;;;;;;5089617;28;20034;-65
2023/07/11 11:47:12;;;;;;;7.80;1.85;;;27.40;90.00;;;;;;5104532;28;20062;-66
2023/07/11 11:49:39;;;;;;;8.02;1.88;;;27.50;89.70;;;;;;5102482;28;20058;-70
2023/07/11 11:52:06;;;;;;;5.82;2.20;;;27.60;88.50;;;;;;5086692;28;20046;-67
2023/07/11 11:54:43;;;;;;;8.82;2.47;;;27.70;86.10;;;;;;5106196;28;20089;-67
2023/07/11 11:57:21;;;;;;;15.77;2.65;;;27.80;84.70;;;;;;5105287;28;20110;-71
2023/07/11 11:59:47;;;;;;;9.20;2.22;;;27.80;84.20;;;;;;5106056;28;20126;-66
2023/07/11 12:02:33;;;;;;;5.38;1.73;;;28.00;85.40;;;;;;5104052;28;20134;-66
2023/07/11 12:05:16;;;;;;;12.23;2.20;;;28.10;85.70;;;;;;5106044;28;20413;-71
2023/07/11 12:07:43;;;;;;;14.30;2.37;;;28.20;82.30;;;;;;5104929;28;20702;-67
2023/07/11 12:10:15;;;;;;;10.20;2.17;;;28.10;81.00;;;;;;5088051;28;20039;-66
2023/07/11 12:12:41;;;;;;;7.10;2.03;;;28.20;81.60;;;;;;5104591;28;20058;-63
2023/07/11 12:15:12;;;;;;;9.90;2.20;;;28.10;81.10;;;;;;5124630;28;20039;-68
2023/07/11 12:17:41;;;;;;;8.43;1.88;;;28.10;80.70;;;;;;5105856;28;20050;-71
2023/07/11 12:20:06;;;;;;;5.13;1.90;;;28.00;80.50;;;;;;5124071;28;20039;-66
2023/07/11 12:22:38;;;;;;;5.80;1.80;;;27.90;82.20;;;;;;5106447;27;20043;-67
2023/07/11 12:25:17;;;;;;;5.85;1.80;;;28.00;83.50;;;;;;5109834;27;20516;-69
2023/07/11 12:27:47;;;;;;;10.35;2.30;;;27.90;82.20;;;;;;5126709;27;20046;-64
2023/07/11 12:30:42;;;;;;;8.55;2.28;;;27.90;83.10;;;;;;5126737;27;20039;-67
2023/07/11 12:33:30;;;;;;;7.20;2.42;;;28.00;83.10;;;;;;5085377;28;20108;-73
2023/07/11 12:36:22;;;;;;;7.22;2.55;;;28.00;82.30;;;;;;5089538;28;20062;-65
2023/07/11 12:38:59;;;;;;;9.00;2.30;;;28.00;81.90;;;;;;5103489;27;20049;-65
2023/07/11 12:41:45;;;;;;;7.57;2.13;;;28.00;81.10;;;;;;5109000;27;20039;-69
2023/07/11 12:44:13;;;;;;;10.23;2.65;;;28.10;81.50;;;;;;5109903;27;20072;-73
2023/07/11 12:46:43;;;;;;;8.65;2.60;;;28.00;80.40;;;;;;5091638;27;20357;-71
2023/07/11 12:49:24;;;;;;;9.10;2.42;;;27.90;80.40;;;;;;5127259;27;20040;-69
2023/07/11 12:51:49;;;;;;;9.80;2.00;;;28.00;80.10;;;;;;5109713;27;20542;-65
2023/07/11 12:54:21;;;;;;;12.30;2.55;;;28.00;82.10;;;;;;5127158;27;20047;-68
2023/07/11 12:56:49;;;;;;;6.47;2.03;;;27.90;81.70;;;;;;5090820;27;20070;-70
2023/07/11 12:59:27;;;;;;;10.50;2.75;;;27.90;80.30;;;;;;5108138;27;20046;-64